createdAt,value
2019-03-02T00:04:51.325Z,0
2019-03-02T00:09:52.032Z,0
2019-03-02T00:14:54.106Z,0
2019-03-02T00:19:51.900Z,0
2019-03-02T00:24:54.128Z,0
2019-03-02T00:29:51.539Z,0
2019-03-02T00:34:51.887Z,0
2019-03-02T00:39:54.687Z,0
2019-03-02T00:44:51.625Z,0
2019-03-02T00:49:51.752Z,0
2019-03-02T00:54:58.154Z,0
2019-03-02T00:59:51.804Z,0
2019-03-02T01:04:52.071Z,0
2019-03-02T01:09:51.909Z,0
2019-03-02T01:14:52.081Z,0
2019-03-02T01:19:52.576Z,0
2019-03-02T01:24:51.899Z,0
2019-03-02T01:29:54.705Z,0
2019-03-02T01:34:51.508Z,0
2019-03-02T01:39:51.466Z,0
2019-03-02T01:44:52.508Z,0
2019-03-02T01:49:51.757Z,0
2019-03-02T01:54:52.528Z,0
2019-03-02T01:59:52.143Z,0
2019-03-02T02:04:54.560Z,0
2019-03-02T02:09:51.334Z,0
2019-03-02T02:14:54.422Z,0
2019-03-02T02:19:51.334Z,0
2019-03-02T02:24:51.364Z,0
2019-03-02T02:29:51.433Z,0
2019-03-02T02:34:56.534Z,0
2019-03-02T02:39:51.850Z,0
2019-03-02T02:44:51.946Z,0
2019-03-02T02:49:52.064Z,0
2019-03-02T02:54:51.684Z,0
2019-03-02T02:59:51.763Z,0
2019-03-02T03:04:52.302Z,0
2019-03-02T03:09:51.630Z,0
2019-03-02T03:14:54.243Z,0
2019-03-02T03:19:52.099Z,0
2019-03-02T03:24:52.125Z,0
2019-03-02T03:29:52.292Z,0
2019-03-02T03:34:51.639Z,0
2019-03-02T03:39:51.759Z,0
2019-03-02T03:44:51.753Z,0
2019-03-02T03:49:51.831Z,0
2019-03-02T03:54:51.833Z,0
2019-03-02T03:59:53.584Z,0
2019-03-02T04:04:51.944Z,0
2019-03-02T04:09:51.723Z,0
2019-03-02T04:14:51.653Z,0
2019-03-02T04:19:51.787Z,0
2019-03-02T04:24:51.712Z,0
2019-03-02T04:29:55.252Z,0
2019-03-02T04:34:54.304Z,0
2019-03-02T04:39:51.332Z,0
2019-03-02T04:44:51.536Z,0
2019-03-02T04:49:52.544Z,0
2019-03-02T04:54:51.555Z,0
2019-03-02T04:59:53.719Z,0
2019-03-02T05:04:52.051Z,0
2019-03-02T05:09:52.079Z,0
2019-03-02T05:14:51.924Z,0
2019-03-02T05:19:51.993Z,0
2019-03-02T05:24:52.354Z,0
2019-03-02T05:29:54.489Z,0
2019-03-02T05:34:51.692Z,0
2019-03-02T05:39:52.852Z,0
2019-03-02T05:44:51.810Z,0
2019-03-02T05:49:54.759Z,0
2019-03-02T05:54:52.019Z,0
2019-03-02T05:59:52.152Z,0
2019-03-02T06:04:53.671Z,0
2019-03-02T06:09:52.450Z,0
2019-03-02T06:14:51.592Z,3.3
2019-03-02T06:19:51.745Z,3.3
2019-03-02T06:24:51.818Z,7.7
2019-03-02T06:29:51.821Z,7.7
2019-03-02T06:34:55.613Z,11.3
2019-03-02T06:39:52.026Z,11.3
2019-03-02T06:44:52.015Z,18.3
2019-03-02T06:49:53.142Z,18.3
2019-03-02T06:54:52.010Z,18.3
2019-03-02T06:59:51.940Z,18.3
2019-03-02T07:04:55.089Z,25.7
2019-03-02T07:09:51.848Z,25.7
2019-03-02T07:14:52.050Z,31
2019-03-02T07:19:52.941Z,31
2019-03-02T07:24:51.912Z,44
2019-03-02T07:29:53.672Z,44
2019-03-02T07:34:51.897Z,62.5
2019-03-02T07:39:51.873Z,62.5
2019-03-02T07:44:54.977Z,65
2019-03-02T07:49:52.286Z,65
2019-03-02T07:54:58.024Z,80.5
2019-03-02T07:59:52.464Z,80.5
2019-03-02T08:04:52.581Z,93.7
2019-03-02T08:09:51.932Z,93.7
2019-03-02T08:14:52.025Z,86.7
2019-03-02T08:19:52.168Z,86.7
2019-03-02T08:24:52.167Z,102.2
2019-03-02T08:29:53.899Z,102.2
2019-03-02T08:34:51.628Z,90.2
2019-03-02T08:39:52.686Z,90.2
2019-03-02T08:44:54.057Z,138.8
2019-03-02T08:49:52.179Z,138.8
2019-03-02T08:54:53.570Z,168.5
2019-03-02T08:59:51.753Z,168.5
2019-03-02T09:04:52.065Z,183.8
2019-03-02T09:09:52.430Z,183.8
2019-03-02T09:14:52.434Z,201.8
2019-03-02T09:19:55.743Z,201.8
2019-03-02T09:24:52.377Z,140.5
2019-03-02T09:29:52.445Z,140.5
2019-03-02T09:34:52.659Z,140
2019-03-02T09:39:51.792Z,140
2019-03-02T09:44:51.863Z,175
2019-03-02T09:49:51.883Z,175
2019-03-02T09:54:51.893Z,90
2019-03-02T09:59:52.247Z,90
2019-03-02T10:04:52.294Z,64
2019-03-02T10:09:52.276Z,64
2019-03-02T10:14:52.328Z,186.7
2019-03-02T10:19:52.461Z,186.7
2019-03-02T10:24:53.204Z,76.3
2019-03-02T10:29:52.111Z,76.3
2019-03-02T10:34:52.744Z,75.3
2019-03-02T10:39:51.828Z,75.3
2019-03-02T10:44:53.734Z,83.8
2019-03-02T10:49:52.791Z,83.8
2019-03-02T10:54:52.775Z,89
2019-03-02T10:59:53.192Z,89
2019-03-02T11:04:52.376Z,111
2019-03-02T11:09:52.544Z,111
2019-03-02T11:14:52.739Z,98.3
2019-03-02T11:19:52.933Z,98.3
2019-03-02T11:24:52.693Z,105
2019-03-02T11:29:52.582Z,105
2019-03-02T11:34:52.857Z,104.3
2019-03-02T11:39:53.295Z,104.3
2019-03-02T11:44:52.191Z,100
2019-03-02T11:49:52.372Z,100
2019-03-02T11:54:52.485Z,106
2019-03-02T11:59:52.498Z,106
2019-03-02T12:04:53.208Z,91
2019-03-02T12:09:52.380Z,91
2019-03-02T12:14:52.339Z,124.5
2019-03-02T12:19:52.477Z,124.5
2019-03-02T12:24:54.775Z,259.5
2019-03-02T12:29:52.046Z,259.5
2019-03-02T12:34:52.165Z,160.7
2019-03-02T12:39:52.157Z,160.7
2019-03-02T12:44:54.285Z,352.8
2019-03-02T12:49:52.632Z,352.8
2019-03-02T12:54:52.003Z,265
2019-03-02T12:59:52.113Z,265
2019-03-02T13:04:52.310Z,215.2
2019-03-02T13:09:52.726Z,215.2
2019-03-02T13:14:52.468Z,181.5
2019-03-02T13:19:52.553Z,181.5
2019-03-02T13:24:53.753Z,169.7
2019-03-02T13:29:53.261Z,169.7
2019-03-02T13:34:52.687Z,168.7
2019-03-02T13:39:52.786Z,168.7
2019-03-02T13:44:52.919Z,164.3
2019-03-02T13:49:52.135Z,164.3
2019-03-02T13:54:52.435Z,253.5
2019-03-02T13:59:52.476Z,253.5
2019-03-02T14:04:52.742Z,280.7
2019-03-02T14:09:52.933Z,280.7
2019-03-02T14:14:52.092Z,135.7
2019-03-02T14:19:52.124Z,135.7
2019-03-02T14:24:53.886Z,139.7
2019-03-02T14:29:52.277Z,139.7
2019-03-02T14:34:52.269Z,170.2
2019-03-02T14:39:52.268Z,170.2
2019-03-02T14:44:52.506Z,140.5
2019-03-02T14:49:52.618Z,140.5
2019-03-02T14:54:53.153Z,131.7
2019-03-02T14:59:52.679Z,131.7
2019-03-02T15:04:52.755Z,111.7
2019-03-02T15:09:52.906Z,111.7
2019-03-02T15:14:52.641Z,112
2019-03-02T15:19:57.301Z,112
2019-03-02T15:24:54.592Z,105.2
2019-03-02T15:29:52.673Z,105.2
2019-03-02T15:34:54.033Z,80.3
2019-03-02T15:39:53.524Z,80.3
2019-03-02T15:44:52.743Z,74
2019-03-02T15:49:52.811Z,74
2019-03-02T15:54:52.861Z,65
2019-03-02T15:59:52.897Z,65
2019-03-02T16:04:53.118Z,37
2019-03-02T16:09:52.228Z,37
2019-03-02T16:14:52.268Z,21.7
2019-03-02T16:19:52.253Z,21.7
2019-03-02T16:24:52.271Z,13.3
2019-03-02T16:29:52.716Z,13.3
2019-03-02T16:34:52.651Z,11.7
2019-03-02T16:39:52.632Z,11.7
2019-03-02T16:44:52.791Z,3.3
2019-03-02T16:49:52.728Z,3.3
2019-03-02T16:54:52.763Z,0
2019-03-02T16:59:52.774Z,0
2019-03-02T17:04:55.450Z,0
2019-03-02T17:09:52.629Z,0
2019-03-02T17:14:52.395Z,0
2019-03-02T17:19:52.466Z,0
2019-03-02T17:24:52.582Z,0
2019-03-02T17:29:52.556Z,0
2019-03-02T17:34:52.573Z,0
2019-03-02T17:39:54.016Z,0
2019-03-02T17:44:55.258Z,0
2019-03-02T17:49:52.748Z,0
2019-03-02T17:54:54.045Z,0
2019-03-02T17:59:53.252Z,0
2019-03-02T18:04:52.391Z,0
2019-03-02T18:09:52.638Z,0
2019-03-02T18:14:52.563Z,0
2019-03-02T18:19:52.558Z,0
2019-03-02T18:24:52.572Z,0
2019-03-02T18:29:52.688Z,0
2019-03-02T18:34:52.776Z,0
2019-03-02T18:39:52.878Z,0
2019-03-02T18:44:54.635Z,0
2019-03-02T18:49:52.929Z,0
2019-03-02T18:54:52.931Z,0
2019-03-02T18:59:52.966Z,0
2019-03-02T19:04:54.640Z,0
2019-03-02T19:09:52.926Z,0
2019-03-02T19:14:53.799Z,0
2019-03-02T19:19:52.825Z,0
2019-03-02T19:24:53.005Z,0
2019-03-02T19:29:52.905Z,0
2019-03-02T19:34:53.031Z,0
2019-03-02T19:39:53.086Z,0
2019-03-02T19:44:52.683Z,0
2019-03-02T19:49:52.655Z,0
2019-03-02T19:54:52.784Z,0
2019-03-02T19:59:52.952Z,0
2019-03-02T20:04:53.112Z,0
2019-03-02T20:09:53.240Z,0
2019-03-02T20:14:53.039Z,0
2019-03-02T20:19:53.193Z,0
2019-03-02T20:24:53.290Z,0
2019-03-02T20:29:52.880Z,0
2019-03-02T20:34:53.127Z,0
2019-03-02T20:39:53.156Z,0
2019-03-02T20:44:53.152Z,0
2019-03-02T20:49:53.103Z,0
2019-03-02T20:54:53.139Z,0
2019-03-02T20:59:53.116Z,0
2019-03-02T21:04:53.254Z,0
2019-03-02T21:09:53.454Z,0
2019-03-02T21:14:52.523Z,0
2019-03-02T21:19:52.586Z,0
2019-03-02T21:24:52.557Z,0
2019-03-02T21:29:52.629Z,0
2019-03-02T21:34:52.710Z,0
2019-03-02T21:39:52.773Z,0
2019-03-02T21:44:52.833Z,0
2019-03-02T21:49:52.791Z,0
2019-03-02T21:54:52.840Z,0
2019-03-02T21:59:52.894Z,0
2019-03-02T22:04:53.004Z,0
2019-03-02T22:09:53.136Z,0
2019-03-02T22:14:53.577Z,0
2019-03-02T22:19:52.671Z,0
2019-03-02T22:24:52.697Z,0
2019-03-02T22:29:52.756Z,0
2019-03-02T22:34:52.892Z,0
2019-03-02T22:39:52.862Z,0
2019-03-02T22:44:52.902Z,0
2019-03-02T22:49:53.209Z,0
2019-03-02T22:54:53.219Z,0
2019-03-02T22:59:53.228Z,0
2019-03-02T23:04:53.192Z,0
2019-03-02T23:09:52.881Z,0
2019-03-02T23:14:54.214Z,0
2019-03-02T23:19:53.498Z,0
2019-03-02T23:24:53.528Z,0
2019-03-02T23:29:53.592Z,0
2019-03-02T23:34:52.776Z,0
2019-03-02T23:39:52.766Z,0
2019-03-02T23:44:52.859Z,0
2019-03-02T23:49:52.975Z,0
2019-03-02T23:54:52.995Z,0
2019-03-02T23:59:53.033Z,0
